METAR Data
IDs: Format: Raw Decoded Include TAF

Data at: 0126 UTC 23 Apr 2021

YCAR 230100Z AUTO 15007KT 9999 // NCD 23/10 Q1016
YCAR 230000Z AUTO 17006KT 9999 // NCD 19/12 Q1015
YCAR 222300Z AUTO 17005KT 9999 // NCD 18/11 Q1015
YCAR 222200Z AUTO 16006KT 9999 // SCT110 19/12 Q1014
YCAR 222100Z AUTO 16009KT 9999 // BKN110 20/12 Q1014
YCAR 222000Z AUTO 17008KT 9999 // SCT110 20/16 Q1014
YCAR 221900Z AUTO 17007KT 9999 // NCD 20/18 Q1014
YCAR 221800Z AUTO 19006KT 9999 // SCT110 22/19 Q1015
YCAR 221700Z AUTO 18006KT 9999 // BKN110 22/19 Q1015
YCAR 221600Z AUTO 18007KT 9999 // NCD 22/19 Q1015
YCAR 221500Z AUTO 19005KT 9999 // NCD 21/20 Q1016
YCAR 221400Z AUTO 19004KT 9999 // NCD 22/20 Q1016
YCAR 221300Z AUTO 21007KT 9999 // NCD 24/20 Q1016
YCAR 221200Z AUTO 21005KT 9999 // NCD 24/19 Q1016
YCAR 221100Z AUTO 21005KT 190V270 9999 // NCD 24/19 Q1015
YCAR 221000Z AUTO 22007KT 200V260 9999 // NCD 26/19 Q1015
YCAR 220900Z AUTO 20011KT 9999 // NCD 27/18 Q1014
YCAR 220800Z AUTO 20011KT 9999 // NCD 28/18 Q1014
YCAR 220700Z AUTO 21011KT 9999 // NCD 29/17 Q1014
YCAR 220600Z AUTO 23009KT 9999 // NCD 29/17 Q1014
YCAR 220500Z AUTO 05005KT 360V070 9999 // NCD 35/06 Q1015
YCAR 220400Z AUTO 06007KT 9999 // NCD 33/07 Q1016
YCAR 220300Z AUTO 07009KT 9999 // NCD 31/10 Q1016
YCAR 220200Z AUTO 08011KT 9999 // NCD 28/08 Q1016
YCAR 220100Z AUTO 08011KT 9999 // NCD 24/07 Q1016
YCAR 220000Z AUTO 10011KT 9999 // NCD 20/08 Q1016
YCAR 212300Z AUTO 12009KT 9999 // NCD 19/09 Q1015
YCAR 212200Z AUTO 11009KT 9999 // NCD 18/10 Q1015
YCAR 212100Z AUTO 13008KT 9999 // NCD 18/12 Q1015
YCAR 212000Z AUTO 12007KT 9999 // NCD 17/15 Q1015
YCAR 211900Z AUTO 14006KT 9999 // NCD 18/16 Q1015
YCAR 211800Z AUTO 14007KT 9999 // NCD 20/17 Q1015
YCAR 211700Z AUTO 14007KT 9999 // NCD 21/18 Q1016
YCAR 211600Z AUTO 15008KT 9999 // NCD 21/18 Q1016
YCAR 211500Z AUTO 17008KT 9999 // NCD 22/18 Q1016
YCAR 211400Z AUTO 17009KT 9999 // NCD 23/17 Q1017